Weather History for KSAZ - November, 2013

Change the Weather History Date:

Monday, November 4, 2013

  Actual Average (WUND) Record (WUND)
Temperature  
Mean Temperature 37 °F -  
Max Temperature 46 °F - - (-1)
Min Temperature 28 °F - - (-1)
Degree Days  
Heating Degree Days 28    
Moisture  
Dew Point 32 °F    
Average Humidity 79    
Maximum Humidity 100    
Minimum Humidity 61    
Precipitation  
Precipitation 0.05 in - - ()
Sea Level Pressure  
Sea Level Pressure 29.85 in    
Wind  
Wind Speed 10 mph (SSW)    
Max Wind Speed 16 mph    
Max Gust Speed 23 mph    
Visibility 10 miles    
Events Rain    
Averages and records for this station are not official NWS values.
T = Trace of Precipitation, MM = Missing Value Source: NWS Daily Summary

Daily Weather History Graph

Daily Weather History Graph

Search for Another Location

Airport or City:

Trip Planner

Search our weather history database for the weather conditions in past years. The results will help you decide how hot, cold, wet, or windy it might be!

Date:

Astronomy

Nov. 04, 2013 Rise Set
Actual Time 7:05 AM CST 4:59 PM CST
Civil Twilight 6:33 AM CST 5:31 PM CST
Nautical Twilight 5:57 AM CST 6:07 PM CST
Astronomical Twilight 5:22 AM CST 6:42 PM CST
Moon 8:20 AM CST (11/4) 6:00 PM CST (11/4)
Length of Visible Light 10h 57m
Length of Day
9h 54m
New Moon, 2% of the Moon is Illuminated
Nov 4
New Moon
Nov 9
First Quarter
Nov 17
Full
Nov 25
Last Quarter
Dec 2
New

Hourly Weather History & Observations

Time (CST) Temp. Windchill Dew Point Humidity Pressure Visibility Wind Dir Wind Speed Gust Speed Precip Events Conditions
12:13 AM 44.6 °F 38.1 °F 32.0 °F 61% 29.76 in 10.0 mi SSE 13.8 mph 23.0 mph N/A   Overcast
12:33 AM 44.6 °F 38.4 °F 32.0 °F 61% 29.76 in 10.0 mi SSE 12.7 mph 18.4 mph N/A   Overcast
12:53 AM 44.6 °F 38.1 °F 32.0 °F 61% 29.76 in 10.0 mi SSE 13.8 mph 19.6 mph N/A   Overcast
1:13 AM 46.4 °F 41.1 °F 33.8 °F 62% 29.76 in 10.0 mi SSE 11.5 mph 19.6 mph N/A   Overcast
1:33 AM 44.6 °F 38.8 °F 33.8 °F 66% 29.75 in 10.0 mi SSE 11.5 mph 17.3 mph N/A   Overcast
1:53 AM 44.6 °F 38.8 °F 33.8 °F 66% 29.75 in 10.0 mi SSE 11.5 mph 16.1 mph N/A   Overcast
2:14 AM 44.6 °F 39.7 °F 33.8 °F 66% 29.74 in 10.0 mi SE 9.2 mph 16.1 mph N/A   Overcast
2:33 AM 44.6 °F 39.2 °F 33.8 °F 66% 29.74 in 10.0 mi SSE 10.4 mph 18.4 mph N/A   Scattered Clouds
2:53 AM 44.6 °F 39.2 °F 33.8 °F 66% 29.74 in 10.0 mi SSE 10.4 mph 16.1 mph N/A   Scattered Clouds
3:14 AM 44.6 °F 39.7 °F 33.8 °F 66% 29.74 in 10.0 mi SSE 9.2 mph - N/A   Scattered Clouds
3:33 AM 44.6 °F 38.4 °F 33.8 °F 66% 29.74 in 10.0 mi SSE 12.7 mph 17.3 mph N/A   Clear
3:53 AM 44.6 °F 39.7 °F 33.8 °F 66% 29.74 in 10.0 mi SSE 9.2 mph 16.1 mph N/A   Scattered Clouds
4:13 AM 44.6 °F 39.2 °F 33.8 °F 66% 29.74 in 10.0 mi SSE 10.4 mph - N/A   Scattered Clouds
4:33 AM 42.8 °F 37.0 °F 33.8 °F 70% 29.74 in 10.0 mi SSE 10.4 mph - N/A   Scattered Clouds
4:54 AM 42.8 °F 38.0 °F 33.8 °F 70% 29.74 in 10.0 mi SSE 8.1 mph - N/A   Clear
5:13 AM 42.8 °F 37.5 °F 33.8 °F 70% 29.75 in 10.0 mi SSE 9.2 mph - N/A   Mostly Cloudy
5:33 AM 42.8 °F 37.5 °F 33.8 °F 70% 29.75 in 10.0 mi SSE 9.2 mph - N/A   Overcast
5:54 AM 42.8 °F 38.0 °F 33.8 °F 70% 29.74 in 10.0 mi SSE 8.1 mph - N/A   Overcast
6:13 AM 42.8 °F 37.5 °F 33.8 °F 70% 29.73 in 10.0 mi SSE 9.2 mph - N/A   Overcast
6:33 AM 42.8 °F 39.3 °F 33.8 °F 70% 29.73 in 10.0 mi SE 5.8 mph - N/A   Overcast
6:54 AM 41.0 °F 37.1 °F 33.8 °F 76% 29.74 in 10.0 mi SSE 5.8 mph - N/A   Scattered Clouds
7:13 AM 39.2 °F 35.0 °F 33.8 °F 81% 29.74 in 10.0 mi SSE 5.8 mph - N/A   Clear
7:33 AM 41.0 °F 38.0 °F 33.8 °F 76% 29.74 in 10.0 mi SSE 4.6 mph - N/A   Clear
7:54 AM 41.0 °F 37.1 °F 33.8 °F 76% 29.75 in 10.0 mi SSE 5.8 mph - N/A   Clear
8:13 AM 42.8 °F 39.3 °F 35.6 °F 76% 29.75 in 10.0 mi SSE 5.8 mph - N/A   Mostly Cloudy
8:33 AM 42.8 °F 38.0 °F 35.6 °F 76% 29.75 in 10.0 mi SSE 8.1 mph - N/A   Overcast
8:53 AM 42.8 °F 38.0 °F 35.6 °F 76% 29.76 in 10.0 mi South 8.1 mph - N/A   Overcast
9:13 AM 42.8 °F 37.5 °F 35.6 °F 76% 29.75 in 10.0 mi South 9.2 mph - N/A   Overcast
9:34 AM 44.6 °F 38.8 °F 35.6 °F 71% 29.76 in 10.0 mi South 11.5 mph - N/A   Overcast
9:53 AM 44.6 °F 40.2 °F 35.6 °F 71% 29.76 in 10.0 mi SSW 8.1 mph - N/A   Overcast
10:13 AM 44.6 °F 40.2 °F 35.6 °F 71% 29.77 in 10.0 mi SSW 8.1 mph - N/A   Overcast
10:34 AM 42.8 °F 38.6 °F 35.6 °F 76% 29.78 in 10.0 mi SW 6.9 mph - N/A   Overcast
10:53 AM 42.8 °F 38.6 °F 35.6 °F 76% 29.78 in 10.0 mi SW 6.9 mph - N/A Rain Rain
11:13 AM 39.2 °F 30.5 °F 37.4 °F 93% 29.80 in 7.0 mi West 16.1 mph - 0.01 in Rain Light Rain
11:33 AM 37.4 °F 29.3 °F 35.6 °F 93% 29.81 in 7.0 mi West 12.7 mph - 0.03 in   Heavy Drizzle
11:54 AM 37.4 °F 29.8 °F 35.6 °F 93% 29.81 in 10.0 mi West 11.5 mph - 0.04 in   Light Drizzle
12:13 PM 37.4 °F 30.3 °F 35.6 °F 93% 29.81 in 10.0 mi WNW 10.4 mph - N/A   Drizzle
12:33 PM 37.4 °F 29.8 °F 35.6 °F 93% 29.81 in 10.0 mi WNW 11.5 mph - N/A   Drizzle
12:54 PM 37.4 °F 29.8 °F 35.6 °F 93% 29.82 in 10.0 mi West 11.5 mph - N/A   Light Drizzle
1:13 PM 35.6 °F 26.6 °F 35.6 °F 100% 29.83 in 7.0 mi WNW 13.8 mph - N/A Rain Rain
1:33 PM 35.6 °F 29.2 °F 35.6 °F 100% 29.83 in 10.0 mi West 8.1 mph - 0.01 in   Drizzle
1:53 PM 35.6 °F 27.1 °F 35.6 °F 100% 29.84 in 10.0 mi West 12.7 mph 17.3 mph 0.01 in Rain Light Rain
2:13 PM 37.4 °F 28.9 °F 35.6 °F 93% 29.85 in 10.0 mi West 13.8 mph - N/A   Overcast
2:33 PM 37.4 °F 28.9 °F 33.8 °F 87% 29.86 in 10.0 mi West 13.8 mph 23.0 mph N/A   Mostly Cloudy
2:54 PM 37.4 °F 28.9 °F 33.8 °F 87% 29.86 in 10.0 mi West 13.8 mph - N/A   Overcast
3:13 PM 37.4 °F 30.3 °F 33.8 °F 87% 29.87 in 10.0 mi West 10.4 mph - N/A   Overcast
3:33 PM 37.4 °F 30.3 °F 33.8 °F 87% 29.88 in 10.0 mi West 10.4 mph - N/A   Overcast
3:53 PM 37.4 °F 30.8 °F 32.0 °F 81% 29.89 in 10.0 mi West 9.2 mph - N/A   Overcast
4:13 PM 37.4 °F 32.1 °F 32.0 °F 81% 29.90 in 10.0 mi West 6.9 mph 16.1 mph N/A   Overcast
4:34 PM 37.4 °F 31.4 °F 30.2 °F 75% 29.90 in 10.0 mi West 8.1 mph - N/A   Overcast
4:53 PM 37.4 °F 33.8 °F 30.2 °F 75% 29.91 in 10.0 mi West 4.6 mph - N/A   Overcast
5:13 PM 35.6 °F 31.7 °F 30.2 °F 81% 29.92 in 10.0 mi SW 4.6 mph - N/A   Scattered Clouds
5:34 PM 33.8 °F 30.8 °F 28.4 °F 81% 29.94 in 10.0 mi SSW 3.5 mph - N/A   Clear
5:53 PM 33.8 °F 30.8 °F 28.4 °F 81% 29.94 in 10.0 mi SSW 3.5 mph - N/A   Clear
6:13 PM 32.0 °F 27.5 °F 28.4 °F 87% 29.95 in 10.0 mi SSW 4.6 mph - N/A   Clear
6:33 PM 30.2 °F 26.7 °F 28.4 °F 93% 29.95 in 10.0 mi SSW 3.5 mph - N/A   Clear
6:53 PM 32.0 °F 27.5 °F 28.4 °F 87% 29.96 in 10.0 mi SSW 4.6 mph - N/A   Clear
7:13 PM 32.0 °F 26.4 °F 28.4 °F 87% 29.97 in 10.0 mi SSW 5.8 mph - N/A   Clear
7:33 PM 32.0 °F 26.4 °F 26.6 °F 80% 29.98 in 10.0 mi SSW 5.8 mph - N/A   Clear
7:53 PM 32.0 °F 27.5 °F 26.6 °F 80% 29.98 in 10.0 mi SW 4.6 mph - N/A   Clear
8:13 PM 32.0 °F 26.4 °F 26.6 °F 80% 29.99 in 10.0 mi SW 5.8 mph - N/A   Clear
8:33 PM 30.2 °F 24.3 °F 26.6 °F 86% 30.00 in 10.0 mi SW 5.8 mph - N/A   Clear
8:53 PM 30.2 °F 25.4 °F 26.6 °F 86% 30.01 in 10.0 mi SW 4.6 mph - N/A   Clear
9:14 PM 30.2 °F 24.3 °F 26.6 °F 86% 30.02 in 10.0 mi SSW 5.8 mph - N/A   Clear
9:33 PM 30.2 °F 24.3 °F 26.6 °F 86% 30.03 in 10.0 mi SSW 5.8 mph - N/A   Clear
9:53 PM 30.2 °F 24.3 °F 24.8 °F 80% 30.03 in 10.0 mi SW 5.8 mph - N/A   Clear
10:13 PM 30.2 °F 23.4 °F 24.8 °F 80% 30.04 in 10.0 mi SSW 6.9 mph - N/A   Clear
10:33 PM 28.4 °F 22.2 °F 24.8 °F 86% 30.05 in 10.0 mi SSW 5.8 mph - N/A   Clear
10:53 PM 30.2 °F 24.3 °F 24.8 °F 80% 30.06 in 10.0 mi SSW 5.8 mph - N/A   Clear
11:13 PM 30.2 °F 24.3 °F 24.8 °F 80% 30.06 in 10.0 mi SW 5.8 mph - N/A   Clear
11:33 PM 30.2 °F 22.6 °F 24.8 °F 80% 30.07 in 10.0 mi SSW 8.1 mph - N/A   Clear
11:53 PM 30.2 °F 23.4 °F 24.8 °F 80% 30.08 in 10.0 mi SW 6.9 mph - N/A   Clear